sensor_id;sensor_type;location;lat;lon;timestamp;temperature;humidity
66144;SHT31;52947;50.842;6.084;2024-03-06T00:01:46;5.72;95.96
66144;SHT31;52947;50.842;6.084;2024-03-06T00:04:14;5.71;96.08
66144;SHT31;52947;50.842;6.084;2024-03-06T00:06:47;5.82;95.54
66144;SHT31;52947;50.842;6.084;2024-03-06T00:09:15;5.91;95.18
66144;SHT31;52947;50.842;6.084;2024-03-06T00:11:43;5.98;94.64
66144;SHT31;52947;50.842;6.084;2024-03-06T00:14:11;6.02;94.43
66144;SHT31;52947;50.842;6.084;2024-03-06T00:16:40;5.92;94.65
66144;SHT31;52947;50.842;6.084;2024-03-06T00:19:08;5.94;94.92
66144;SHT31;52947;50.842;6.084;2024-03-06T00:21:36;5.92;94.83
66144;SHT31;52947;50.842;6.084;2024-03-06T00:24:06;5.99;94.55
66144;SHT31;52947;50.842;6.084;2024-03-06T00:26:34;6.05;94.08
66144;SHT31;52947;50.842;6.084;2024-03-06T00:29:02;6.08;94.13
66144;SHT31;52947;50.842;6.084;2024-03-06T00:31:30;6.06;94.02
66144;SHT31;52947;50.842;6.084;2024-03-06T00:33:59;6.11;93.71
66144;SHT31;52947;50.842;6.084;2024-03-06T00:36:27;6.06;93.65
66144;SHT31;52947;50.842;6.084;2024-03-06T00:38:55;5.98;93.83
66144;SHT31;52947;50.842;6.084;2024-03-06T00:41:24;5.99;93.87
66144;SHT31;52947;50.842;6.084;2024-03-06T00:43:53;5.85;94.30
66144;SHT31;52947;50.842;6.084;2024-03-06T00:46:21;5.78;94.45
66144;SHT31;52947;50.842;6.084;2024-03-06T00:48:49;5.75;94.35
66144;SHT31;52947;50.842;6.084;2024-03-06T00:51:17;5.67;94.50
66144;SHT31;52947;50.842;6.084;2024-03-06T00:53:55;5.62;94.43
66144;SHT31;52947;50.842;6.084;2024-03-06T00:56:25;5.52;94.60
66144;SHT31;52947;50.842;6.084;2024-03-06T00:58:53;5.37;94.81
66144;SHT31;52947;50.842;6.084;2024-03-06T01:01:21;5.27;95.05
66144;SHT31;52947;50.842;6.084;2024-03-06T01:03:49;5.15;95.32
66144;SHT31;52947;50.842;6.084;2024-03-06T01:06:17;4.92;95.48
66144;SHT31;52947;50.842;6.084;2024-03-06T01:08:45;4.76;96.12
66144;SHT31;52947;50.842;6.084;2024-03-06T01:11:13;4.79;96.11
66144;SHT31;52947;50.842;6.084;2024-03-06T01:13:43;4.52;95.92
66144;SHT31;52947;50.842;6.084;2024-03-06T01:16:11;4.31;96.20
66144;SHT31;52947;50.842;6.084;2024-03-06T01:18:39;4.07;96.48
66144;SHT31;52947;50.842;6.084;2024-03-06T01:21:07;3.89;96.80
66144;SHT31;52947;50.842;6.084;2024-03-06T01:23:35;3.97;97.58
66144;SHT31;52947;50.842;6.084;2024-03-06T01:26:03;4.08;97.52
66144;SHT31;52947;50.842;6.084;2024-03-06T01:28:32;4.18;97.33
66144;SHT31;52947;50.842;6.084;2024-03-06T01:31:01;4.44;96.89
66144;SHT31;52947;50.842;6.084;2024-03-06T01:33:29;5.05;99.99
66144;SHT31;52947;50.842;6.084;2024-03-06T01:35:57;5.57;99.99
66144;SHT31;52947;50.842;6.084;2024-03-06T01:38:25;5.17;96.69
66144;SHT31;52947;50.842;6.084;2024-03-06T01:40:53;4.95;95.62
66144;SHT31;52947;50.842;6.084;2024-03-06T01:43:23;4.64;95.81
66144;SHT31;52947;50.842;6.084;2024-03-06T01:45:52;4.59;95.79
66144;SHT31;52947;50.842;6.084;2024-03-06T01:48:27;4.47;95.79
66144;SHT31;52947;50.842;6.084;2024-03-06T01:50:57;4.38;95.96
66144;SHT31;52947;50.842;6.084;2024-03-06T01:53:27;4.34;96.03
66144;SHT31;52947;50.842;6.084;2024-03-06T01:55:56;4.27;96.14
66144;SHT31;52947;50.842;6.084;2024-03-06T01:58:24;4.08;96.13
66144;SHT31;52947;50.842;6.084;2024-03-06T02:00:52;3.83;96.40
66144;SHT31;52947;50.842;6.084;2024-03-06T02:03:24;3.65;96.75
66144;SHT31;52947;50.842;6.084;2024-03-06T02:05:53;3.45;96.93
66144;SHT31;52947;50.842;6.084;2024-03-06T02:08:21;3.35;97.46
66144;SHT31;52947;50.842;6.084;2024-03-06T02:10:49;3.34;97.63
66144;SHT31;52947;50.842;6.084;2024-03-06T02:13:17;3.39;97.90
66144;SHT31;52947;50.842;6.084;2024-03-06T02:15:46;3.46;98.03
66144;SHT31;52947;50.842;6.084;2024-03-06T02:18:14;3.69;97.73
66144;SHT31;52947;50.842;6.084;2024-03-06T02:20:43;3.69;97.36
66144;SHT31;52947;50.842;6.084;2024-03-06T02:23:12;3.69;97.26
66144;SHT31;52947;50.842;6.084;2024-03-06T02:25:41;3.67;97.21
66144;SHT31;52947;50.842;6.084;2024-03-06T02:28:09;3.31;97.03
66144;SHT31;52947;50.842;6.084;2024-03-06T02:30:37;3.05;97.15
66144;SHT31;52947;50.842;6.084;2024-03-06T02:33:05;2.79;97.32
66144;SHT31;52947;50.842;6.084;2024-03-06T02:35:34;2.57;97.44
66144;SHT31;52947;50.842;6.084;2024-03-06T02:38:04;2.47;97.94
66144;SHT31;52947;50.842;6.084;2024-03-06T02:40:33;2.58;98.66
66144;SHT31;52947;50.842;6.084;2024-03-06T02:43:01;2.85;99.14
66144;SHT31;52947;50.842;6.084;2024-03-06T02:45:29;3.07;98.98
66144;SHT31;52947;50.842;6.084;2024-03-06T02:47:57;3.25;98.43
66144;SHT31;52947;50.842;6.084;2024-03-06T02:50:25;3.29;98.08
66144;SHT31;52947;50.842;6.084;2024-03-06T02:52:53;3.45;97.71
66144;SHT31;52947;50.842;6.084;2024-03-06T02:55:23;3.28;97.39
66144;SHT31;52947;50.842;6.084;2024-03-06T02:57:51;3.39;97.71
66144;SHT31;52947;50.842;6.084;2024-03-06T03:00:19;3.31;97.47
66144;SHT31;52947;50.842;6.084;2024-03-06T03:02:48;3.26;97.54
66144;SHT31;52947;50.842;6.084;2024-03-06T03:05:16;3.11;97.65
66144;SHT31;52947;50.842;6.084;2024-03-06T03:07:44;3.00;97.67
66144;SHT31;52947;50.842;6.084;2024-03-06T03:10:13;2.91;97.89
66144;SHT31;52947;50.842;6.084;2024-03-06T03:12:42;3.03;98.30
66144;SHT31;52947;50.842;6.084;2024-03-06T03:15:10;3.14;98.05
66144;SHT31;52947;50.842;6.084;2024-03-06T03:17:39;3.28;97.77
66144;SHT31;52947;50.842;6.084;2024-03-06T03:20:09;3.38;97.53
66144;SHT31;52947;50.842;6.084;2024-03-06T03:22:38;3.36;97.30
66144;SHT31;52947;50.842;6.084;2024-03-06T03:25:07;3.28;97.18
66144;SHT31;52947;50.842;6.084;2024-03-06T03:27:37;3.12;97.21
66144;SHT31;52947;50.842;6.084;2024-03-06T03:30:08;3.04;97.48
66144;SHT31;52947;50.842;6.084;2024-03-06T03:32:37;3.03;97.62
66144;SHT31;52947;50.842;6.084;2024-03-06T03:35:06;2.93;97.59
66144;SHT31;52947;50.842;6.084;2024-03-06T03:37:34;2.83;97.61
66144;SHT31;52947;50.842;6.084;2024-03-06T03:40:03;2.67;97.78
66144;SHT31;52947;50.842;6.084;2024-03-06T03:42:31;2.64;98.13
66144;SHT31;52947;50.842;6.084;2024-03-06T03:44:59;2.57;98.13
66144;SHT31;52947;50.842;6.084;2024-03-06T03:47:28;2.44;98.17
66144;SHT31;52947;50.842;6.084;2024-03-06T03:49:56;2.42;98.56
66144;SHT31;52947;50.842;6.084;2024-03-06T03:52:36;2.46;99.12
66144;SHT31;52947;50.842;6.084;2024-03-06T03:55:09;2.53;99.72
66144;SHT31;52947;50.842;6.084;2024-03-06T03:57:37;2.76;99.99
66144;SHT31;52947;50.842;6.084;2024-03-06T04:00:06;2.90;99.99
66144;SHT31;52947;50.842;6.084;2024-03-06T04:02:39;2.94;99.99
66144;SHT31;52947;50.842;6.084;2024-03-06T04:05:08;2.93;99.99
66144;SHT31;52947;50.842;6.084;2024-03-06T04:07:37;2.79;99.73
66144;SHT31;52947;50.842;6.084;2024-03-06T04:10:06;2.84;99.89
66144;SHT31;52947;50.842;6.084;2024-03-06T04:12:38;2.87;99.99
66144;SHT31;52947;50.842;6.084;2024-03-06T04:15:07;3.15;99.99
66144;SHT31;52947;50.842;6.084;2024-03-06T04:17:35;3.15;99.99
66144;SHT31;52947;50.842;6.084;2024-03-06T04:20:05;3.15;99.99
66144;SHT31;52947;50.842;6.084;2024-03-06T04:22:34;3.34;99.99
66144;SHT31;52947;50.842;6.084;2024-03-06T04:25:03;3.62;99.99
66144;SHT31;52947;50.842;6.084;2024-03-06T04:27:31;3.59;99.62
66144;SHT31;52947;50.842;6.084;2024-03-06T04:29:59;3.52;99.43
66144;SHT31;52947;50.842;6.084;2024-03-06T04:32:27;3.48;99.25
66144;SHT31;52947;50.842;6.084;2024-03-06T04:34:55;3.59;99.48
66144;SHT31;52947;50.842;6.084;2024-03-06T04:37:25;3.29;98.58
66144;SHT31;52947;50.842;6.084;2024-03-06T04:39:56;3.16;98.72
66144;SHT31;52947;50.842;6.084;2024-03-06T04:42:24;3.18;99.16
66144;SHT31;52947;50.842;6.084;2024-03-06T04:44:52;3.08;99.22
66144;SHT31;52947;50.842;6.084;2024-03-06T04:47:20;2.90;98.87
66144;SHT31;52947;50.842;6.084;2024-03-06T04:49:47;2.50;98.38
66144;SHT31;52947;50.842;6.084;2024-03-06T04:52:16;2.23;98.18
66144;SHT31;52947;50.842;6.084;2024-03-06T04:54:46;2.06;98.34
66144;SHT31;52947;50.842;6.084;2024-03-06T04:57:14;1.92;98.51
66144;SHT31;52947;50.842;6.084;2024-03-06T04:59:42;1.72;98.43
66144;SHT31;52947;50.842;6.084;2024-03-06T05:02:10;1.60;98.53
66144;SHT31;52947;50.842;6.084;2024-03-06T05:04:39;1.51;98.76
66144;SHT31;52947;50.842;6.084;2024-03-06T05:07:24;1.68;99.69
66144;SHT31;52947;50.842;6.084;2024-03-06T05:10:11;1.79;99.95
66144;SHT31;52947;50.842;6.084;2024-03-06T05:12:56;1.72;99.87
66144;SHT31;52947;50.842;6.084;2024-03-06T05:15:41;1.72;99.98
66144;SHT31;52947;50.842;6.084;2024-03-06T05:18:27;1.81;99.99
66144;SHT31;52947;50.842;6.084;2024-03-06T05:21:12;1.78;99.99
66144;SHT31;52947;50.842;6.084;2024-03-06T05:23:57;1.83;99.99
66144;SHT31;52947;50.842;6.084;2024-03-06T05:26:44;1.74;99.99
66144;SHT31;52947;50.842;6.084;2024-03-06T05:29:30;1.82;99.99
66144;SHT31;52947;50.842;6.084;2024-03-06T05:32:15;2.01;99.99
66144;SHT31;52947;50.842;6.084;2024-03-06T05:35:01;1.98;99.99
66144;SHT31;52947;50.842;6.084;2024-03-06T05:37:46;1.85;99.99
66144;SHT31;52947;50.842;6.084;2024-03-06T05:40:32;1.67;99.99
66144;SHT31;52947;50.842;6.084;2024-03-06T05:43:22;1.40;99.59
66144;SHT31;52947;50.842;6.084;2024-03-06T05:46:08;1.43;99.99
66144;SHT31;52947;50.842;6.084;2024-03-06T05:48:53;1.46;99.99
66144;SHT31;52947;50.842;6.084;2024-03-06T05:51:38;1.29;99.84
66144;SHT31;52947;50.842;6.084;2024-03-06T05:54:24;1.16;99.71
66144;SHT31;52947;50.842;6.084;2024-03-06T05:57:10;1.22;99.99
66144;SHT31;52947;50.842;6.084;2024-03-06T05:59:57;1.23;99.99
66144;SHT31;52947;50.842;6.084;2024-03-06T06:02:25;1.23;99.99
66144;SHT31;52947;50.842;6.084;2024-03-06T06:04:54;1.19;99.99
66144;SHT31;52947;50.842;6.084;2024-03-06T06:07:42;1.17;99.99
66144;SHT31;52947;50.842;6.084;2024-03-06T06:10:10;1.37;99.99
66144;SHT31;52947;50.842;6.084;2024-03-06T06:12:38;1.57;99.99
66144;SHT31;52947;50.842;6.084;2024-03-06T06:15:08;1.79;99.99
66144;SHT31;52947;50.842;6.084;2024-03-06T06:17:36;1.97;99.99
66144;SHT31;52947;50.842;6.084;2024-03-06T06:20:06;2.11;99.99
66144;SHT31;52947;50.842;6.084;2024-03-06T06:22:36;2.33;99.99
66144;SHT31;52947;50.842;6.084;2024-03-06T06:25:05;2.28;99.99
66144;SHT31;52947;50.842;6.084;2024-03-06T06:27:34;2.13;99.99
66144;SHT31;52947;50.842;6.084;2024-03-06T06:30:02;2.06;99.99
66144;SHT31;52947;50.842;6.084;2024-03-06T06:32:34;2.40;99.99
66144;SHT31;52947;50.842;6.084;2024-03-06T06:35:03;2.43;99.99
66144;SHT31;52947;50.842;6.084;2024-03-06T06:37:32;2.61;99.99
66144;SHT31;52947;50.842;6.084;2024-03-06T06:40:00;2.61;99.78
66144;SHT31;52947;50.842;6.084;2024-03-06T06:42:33;3.03;99.99
66144;SHT31;52947;50.842;6.084;2024-03-06T06:45:02;3.07;99.85
66144;SHT31;52947;50.842;6.084;2024-03-06T06:47:30;3.05;99.45
66144;SHT31;52947;50.842;6.084;2024-03-06T06:49:59;4.00;99.29
66144;SHT31;52947;50.842;6.084;2024-03-06T06:52:27;4.93;97.82
66144;SHT31;52947;50.842;6.084;2024-03-06T06:54:55;6.09;96.50
66144;SHT31;52947;50.842;6.084;2024-03-06T06:57:23;7.02;95.27
66144;SHT31;52947;50.842;6.084;2024-03-06T06:59:51;7.69;92.95
66144;SHT31;52947;50.842;6.084;2024-03-06T07:02:19;8.16;91.24
66144;SHT31;52947;50.842;6.084;2024-03-06T07:04:48;8.07;88.87
66144;SHT31;52947;50.842;6.084;2024-03-06T07:07:18;8.08;87.84
66144;SHT31;52947;50.842;6.084;2024-03-06T07:09:46;7.98;87.96
66144;SHT31;52947;50.842;6.084;2024-03-06T07:12:14;7.94;89.45
66144;SHT31;52947;50.842;6.084;2024-03-06T07:14:42;7.67;90.97
66144;SHT31;52947;50.842;6.084;2024-03-06T07:17:10;7.76;89.59
66144;SHT31;52947;50.842;6.084;2024-03-06T07:19:38;8.10;89.37
66144;SHT31;52947;50.842;6.084;2024-03-06T07:22:07;8.40;88.58
66144;SHT31;52947;50.842;6.084;2024-03-06T07:24:36;8.68;87.40
66144;SHT31;52947;50.842;6.084;2024-03-06T07:27:05;9.16;89.15
66144;SHT31;52947;50.842;6.084;2024-03-06T07:29:35;10.48;85.35
66144;SHT31;52947;50.842;6.084;2024-03-06T07:32:04;12.26;82.75
66144;SHT31;52947;50.842;6.084;2024-03-06T07:34:32;13.56;77.20
66144;SHT31;52947;50.842;6.084;2024-03-06T07:37:01;14.04;73.61
66144;SHT31;52947;50.842;6.084;2024-03-06T07:39:32;13.91;72.55
66144;SHT31;52947;50.842;6.084;2024-03-06T07:42:03;14.03;71.08
66144;SHT31;52947;50.842;6.084;2024-03-06T07:44:31;14.00;70.79
66144;SHT31;52947;50.842;6.084;2024-03-06T07:46:59;13.83;70.14
66144;SHT31;52947;50.842;6.084;2024-03-06T07:49:27;13.87;74.82
66144;SHT31;52947;50.842;6.084;2024-03-06T07:51:55;14.52;72.00
66144;SHT31;52947;50.842;6.084;2024-03-06T07:54:23;15.07;71.86
66144;SHT31;52947;50.842;6.084;2024-03-06T07:56:51;15.57;68.56
66144;SHT31;52947;50.842;6.084;2024-03-06T07:59:21;16.02;67.83
66144;SHT31;52947;50.842;6.084;2024-03-06T08:01:49;17.11;66.34
66144;SHT31;52947;50.842;6.084;2024-03-06T08:04:17;18.06;63.53
66144;SHT31;52947;50.842;6.084;2024-03-06T08:06:45;19.02;62.78
66144;SHT31;52947;50.842;6.084;2024-03-06T08:09:14;19.77;60.45
66144;SHT31;52947;50.842;6.084;2024-03-06T08:11:43;20.25;58.66
66144;SHT31;52947;50.842;6.084;2024-03-06T08:14:11;20.79;58.59
66144;SHT31;52947;50.842;6.084;2024-03-06T08:16:43;21.13;55.80
66144;SHT31;52947;50.842;6.084;2024-03-06T08:19:11;21.38;55.41
66144;SHT31;52947;50.842;6.084;2024-03-06T08:21:39;21.64;55.17
66144;SHT31;52947;50.842;6.084;2024-03-06T08:24:07;21.81;53.61
66144;SHT31;52947;50.842;6.084;2024-03-06T08:26:54;22.08;54.04
66144;SHT31;52947;50.842;6.084;2024-03-06T08:29:23;22.77;52.93
66144;SHT31;52947;50.842;6.084;2024-03-06T08:31:53;23.35;51.75
66144;SHT31;52947;50.842;6.084;2024-03-06T08:34:24;23.54;50.52
66144;SHT31;52947;50.842;6.084;2024-03-06T08:36:52;22.71;52.33
66144;SHT31;52947;50.842;6.084;2024-03-06T08:39:21;23.25;51.51
66144;SHT31;52947;50.842;6.084;2024-03-06T08:41:50;23.37;50.71
66144;SHT31;52947;50.842;6.084;2024-03-06T08:44:19;23.95;49.90
66144;SHT31;52947;50.842;6.084;2024-03-06T08:46:47;23.56;50.27
66144;SHT31;52947;50.842;6.084;2024-03-06T08:49:16;24.61;49.02
66144;SHT31;52947;50.842;6.084;2024-03-06T08:51:44;24.72;48.90
66144;SHT31;52947;50.842;6.084;2024-03-06T08:54:12;23.70;48.61
66144;SHT31;52947;50.842;6.084;2024-03-06T08:56:43;25.51;47.75
66144;SHT31;52947;50.842;6.084;2024-03-06T08:59:12;25.51;48.21
66144;SHT31;52947;50.842;6.084;2024-03-06T09:01:40;26.07;46.13
66144;SHT31;52947;50.842;6.084;2024-03-06T09:04:08;26.44;45.76
66144;SHT31;52947;50.842;6.084;2024-03-06T09:06:37;27.46;44.75
66144;SHT31;52947;50.842;6.084;2024-03-06T09:09:05;26.82;44.51
66144;SHT31;52947;50.842;6.084;2024-03-06T09:11:33;26.68;45.35
66144;SHT31;52947;50.842;6.084;2024-03-06T09:14:01;27.39;44.25
66144;SHT31;52947;50.842;6.084;2024-03-06T09:16:31;27.33;44.05
66144;SHT31;52947;50.842;6.084;2024-03-06T09:18:59;26.78;44.42
66144;SHT31;52947;50.842;6.084;2024-03-06T09:21:27;25.70;44.72
66144;SHT31;52947;50.842;6.084;2024-03-06T09:23:56;25.36;44.81
66144;SHT31;52947;50.842;6.084;2024-03-06T09:26:24;27.29;43.75
66144;SHT31;52947;50.842;6.084;2024-03-06T09:28:52;28.46;42.13
66144;SHT31;52947;50.842;6.084;2024-03-06T09:31:20;28.64;41.29
66144;SHT31;52947;50.842;6.084;2024-03-06T09:33:48;28.32;43.18
66144;SHT31;52947;50.842;6.084;2024-03-06T09:36:16;27.12;44.68
66144;SHT31;52947;50.842;6.084;2024-03-06T09:38:45;27.27;43.68
66144;SHT31;52947;50.842;6.084;2024-03-06T09:41:14;25.65;45.05
66144;SHT31;52947;50.842;6.084;2024-03-06T09:43:43;23.69;47.89
66144;SHT31;52947;50.842;6.084;2024-03-06T09:46:11;22.60;50.00
66144;SHT31;52947;50.842;6.084;2024-03-06T09:48:46;21.43;51.68
66144;SHT31;52947;50.842;6.084;2024-03-06T09:51:14;20.73;53.62
66144;SHT31;52947;50.842;6.084;2024-03-06T09:53:42;20.49;53.72
66144;SHT31;52947;50.842;6.084;2024-03-06T09:56:11;20.34;55.31
66144;SHT31;52947;50.842;6.084;2024-03-06T09:58:41;21.79;52.05
66144;SHT31;52947;50.842;6.084;2024-03-06T10:01:10;21.99;51.39
66144;SHT31;52947;50.842;6.084;2024-03-06T10:03:40;21.07;52.67
66144;SHT31;52947;50.842;6.084;2024-03-06T10:06:08;21.69;52.32
66144;SHT31;52947;50.842;6.084;2024-03-06T10:08:42;20.96;53.78
66144;SHT31;52947;50.842;6.084;2024-03-06T10:11:11;23.18;47.88
66144;SHT31;52947;50.842;6.084;2024-03-06T10:13:41;24.31;46.24
66144;SHT31;52947;50.842;6.084;2024-03-06T10:16:09;25.12;45.43
66144;SHT31;52947;50.842;6.084;2024-03-06T10:18:38;23.80;48.90
66144;SHT31;52947;50.842;6.084;2024-03-06T10:21:06;23.34;46.88
66144;SHT31;52947;50.842;6.084;2024-03-06T10:23:34;23.85;48.53
66144;SHT31;52947;50.842;6.084;2024-03-06T10:26:06;24.30;46.25
66144;SHT31;52947;50.842;6.084;2024-03-06T10:28:35;23.92;44.69
66144;SHT31;52947;50.842;6.084;2024-03-06T10:31:05;25.11;45.86
66144;SHT31;52947;50.842;6.084;2024-03-06T10:33:34;25.65;44.03
66144;SHT31;52947;50.842;6.084;2024-03-06T10:36:04;25.73;44.33
66144;SHT31;52947;50.842;6.084;2024-03-06T10:38:36;25.20;43.64
66144;SHT31;52947;50.842;6.084;2024-03-06T10:41:07;24.81;44.22
66144;SHT31;52947;50.842;6.084;2024-03-06T10:43:42;25.71;43.21
66144;SHT31;52947;50.842;6.084;2024-03-06T10:46:14;25.89;44.90
66144;SHT31;52947;50.842;6.084;2024-03-06T10:48:43;25.77;44.09
66144;SHT31;52947;50.842;6.084;2024-03-06T10:51:13;26.13;43.46
66144;SHT31;52947;50.842;6.084;2024-03-06T10:53:42;26.05;43.25
66144;SHT31;52947;50.842;6.084;2024-03-06T10:56:11;25.51;43.11
66144;SHT31;52947;50.842;6.084;2024-03-06T10:58:40;25.43;43.32
66144;SHT31;52947;50.842;6.084;2024-03-06T11:01:09;22.08;47.38
66144;SHT31;52947;50.842;6.084;2024-03-06T11:03:41;21.19;49.34
66144;SHT31;52947;50.842;6.084;2024-03-06T11:06:09;20.65;51.17
66144;SHT31;52947;50.842;6.084;2024-03-06T11:08:37;19.81;52.87
66144;SHT31;52947;50.842;6.084;2024-03-06T11:11:21;19.33;52.62
66144;SHT31;52947;50.842;6.084;2024-03-06T11:13:49;19.49;53.83
66144;SHT31;52947;50.842;6.084;2024-03-06T11:16:17;21.06;49.24
66144;SHT31;52947;50.842;6.084;2024-03-06T11:18:47;21.75;47.07
66144;SHT31;52947;50.842;6.084;2024-03-06T11:21:28;24.06;44.72
66144;SHT31;52947;50.842;6.084;2024-03-06T11:24:13;24.19;43.57
66144;SHT31;52947;50.842;6.084;2024-03-06T11:26:46;23.54;43.72
66144;SHT31;52947;50.842;6.084;2024-03-06T11:29:18;22.12;45.92
66144;SHT31;52947;50.842;6.084;2024-03-06T11:32:02;20.93;47.71
66144;SHT31;52947;50.842;6.084;2024-03-06T11:34:32;20.00;49.59
66144;SHT31;52947;50.842;6.084;2024-03-06T11:37:03;19.32;51.69
66144;SHT31;52947;50.842;6.084;2024-03-06T11:39:34;18.92;52.27
66144;SHT31;52947;50.842;6.084;2024-03-06T11:42:04;18.89;53.82
66144;SHT31;52947;50.842;6.084;2024-03-06T11:44:35;18.33;51.47
66144;SHT31;52947;50.842;6.084;2024-03-06T11:47:05;19.34;49.65
66144;SHT31;52947;50.842;6.084;2024-03-06T11:49:37;21.08;47.47
66144;SHT31;52947;50.842;6.084;2024-03-06T11:52:07;21.92;45.38
66144;SHT31;52947;50.842;6.084;2024-03-06T11:54:37;22.67;46.33
66144;SHT31;52947;50.842;6.084;2024-03-06T11:57:05;23.58;44.13
66144;SHT31;52947;50.842;6.084;2024-03-06T11:59:35;23.46;44.70
66144;SHT31;52947;50.842;6.084;2024-03-06T12:02:06;21.99;44.82
66144;SHT31;52947;50.842;6.084;2024-03-06T12:04:36;21.26;45.09
66144;SHT31;52947;50.842;6.084;2024-03-06T12:07:08;22.57;44.32
66144;SHT31;52947;50.842;6.084;2024-03-06T12:09:38;22.74;41.59
66144;SHT31;52947;50.842;6.084;2024-03-06T12:12:09;22.94;43.28
66144;SHT31;52947;50.842;6.084;2024-03-06T12:14:38;22.97;43.71
66144;SHT31;52947;50.842;6.084;2024-03-06T12:17:12;23.87;42.67
66144;SHT31;52947;50.842;6.084;2024-03-06T12:19:44;24.41;42.52
66144;SHT31;52947;50.842;6.084;2024-03-06T12:22:12;24.79;41.76
66144;SHT31;52947;50.842;6.084;2024-03-06T12:24:42;25.11;40.90
66144;SHT31;52947;50.842;6.084;2024-03-06T12:27:10;24.43;41.16
66144;SHT31;52947;50.842;6.084;2024-03-06T12:29:37;24.46;41.18
66144;SHT31;52947;50.842;6.084;2024-03-06T12:32:15;24.03;41.45
66144;SHT31;52947;50.842;6.084;2024-03-06T12:34:57;24.58;41.49
66144;SHT31;52947;50.842;6.084;2024-03-06T12:37:30;22.63;45.77
66144;SHT31;52947;50.842;6.084;2024-03-06T12:39:59;22.60;46.27
66144;SHT31;52947;50.842;6.084;2024-03-06T12:42:28;22.06;46.91
66144;SHT31;52947;50.842;6.084;2024-03-06T12:44:55;20.32;48.49
66144;SHT31;52947;50.842;6.084;2024-03-06T12:47:24;19.46;50.41
66144;SHT31;52947;50.842;6.084;2024-03-06T12:49:52;19.16;53.40
66144;SHT31;52947;50.842;6.084;2024-03-06T12:52:21;17.82;55.40
66144;SHT31;52947;50.842;6.084;2024-03-06T12:54:49;17.51;54.90
66144;SHT31;52947;50.842;6.084;2024-03-06T12:57:17;16.29;56.37
66144;SHT31;52947;50.842;6.084;2024-03-06T12:59:45;16.33;58.50
66144;SHT31;52947;50.842;6.084;2024-03-06T13:02:14;16.42;59.14
66144;SHT31;52947;50.842;6.084;2024-03-06T13:04:42;15.00;60.74
66144;SHT31;52947;50.842;6.084;2024-03-06T13:07:10;14.59;60.70
66144;SHT31;52947;50.842;6.084;2024-03-06T13:09:40;15.07;62.24
66144;SHT31;52947;50.842;6.084;2024-03-06T13:12:08;15.20;60.48
66144;SHT31;52947;50.842;6.084;2024-03-06T13:14:37;14.96;59.94
66144;SHT31;52947;50.842;6.084;2024-03-06T13:17:05;15.08;59.86
66144;SHT31;52947;50.842;6.084;2024-03-06T13:19:34;15.24;60.65
66144;SHT31;52947;50.842;6.084;2024-03-06T13:22:02;15.36;61.06
66144;SHT31;52947;50.842;6.084;2024-03-06T13:24:33;15.14;61.18
66144;SHT31;52947;50.842;6.084;2024-03-06T13:27:05;14.71;61.09
66144;SHT31;52947;50.842;6.084;2024-03-06T13:29:33;15.57;60.18
66144;SHT31;52947;50.842;6.084;2024-03-06T13:32:01;16.84;58.18
66144;SHT31;52947;50.842;6.084;2024-03-06T13:34:30;16.61;57.82
66144;SHT31;52947;50.842;6.084;2024-03-06T13:36:58;15.72;59.04
66144;SHT31;52947;50.842;6.084;2024-03-06T13:39:26;15.51;58.81
66144;SHT31;52947;50.842;6.084;2024-03-06T13:41:54;15.43;58.79
66144;SHT31;52947;50.842;6.084;2024-03-06T13:44:23;14.80;60.72
66144;SHT31;52947;50.842;6.084;2024-03-06T13:46:51;14.80;60.79
66144;SHT31;52947;50.842;6.084;2024-03-06T13:49:35;14.66;61.49
66144;SHT31;52947;50.842;6.084;2024-03-06T13:52:04;14.79;61.94
66144;SHT31;52947;50.842;6.084;2024-03-06T13:54:34;15.02;60.71
66144;SHT31;52947;50.842;6.084;2024-03-06T13:57:02;15.16;60.47
66144;SHT31;52947;50.842;6.084;2024-03-06T13:59:32;14.28;61.26
66144;SHT31;52947;50.842;6.084;2024-03-06T14:02:01;13.53;63.38
66144;SHT31;52947;50.842;6.084;2024-03-06T14:04:29;12.44;65.17
66144;SHT31;52947;50.842;6.084;2024-03-06T14:06:57;12.36;65.80
66144;SHT31;52947;50.842;6.084;2024-03-06T14:09:26;12.61;64.91
66144;SHT31;52947;50.842;6.084;2024-03-06T14:11:55;12.88;64.56
66144;SHT31;52947;50.842;6.084;2024-03-06T14:14:24;12.95;64.57
66144;SHT31;52947;50.842;6.084;2024-03-06T14:16:54;13.45;64.28
66144;SHT31;52947;50.842;6.084;2024-03-06T14:19:22;13.94;62.97
66144;SHT31;52947;50.842;6.084;2024-03-06T14:21:50;14.29;62.35
66144;SHT31;52947;50.842;6.084;2024-03-06T14:24:18;14.04;61.96
66144;SHT31;52947;50.842;6.084;2024-03-06T14:26:47;14.45;61.06
66144;SHT31;52947;50.842;6.084;2024-03-06T14:29:16;14.61;60.37
66144;SHT31;52947;50.842;6.084;2024-03-06T14:31:44;14.73;60.07
66144;SHT31;52947;50.842;6.084;2024-03-06T14:34:13;14.17;61.83
66144;SHT31;52947;50.842;6.084;2024-03-06T14:36:41;14.61;60.86
66144;SHT31;52947;50.842;6.084;2024-03-06T14:39:09;14.82;60.54
66144;SHT31;52947;50.842;6.084;2024-03-06T14:41:38;15.10;59.48
66144;SHT31;52947;50.842;6.084;2024-03-06T14:44:09;15.40;58.29
66144;SHT31;52947;50.842;6.084;2024-03-06T14:46:37;14.79;59.17
66144;SHT31;52947;50.842;6.084;2024-03-06T14:49:05;14.20;61.28
66144;SHT31;52947;50.842;6.084;2024-03-06T14:51:35;14.00;61.65
66144;SHT31;52947;50.842;6.084;2024-03-06T14:54:03;13.97;60.65
66144;SHT31;52947;50.842;6.084;2024-03-06T14:56:32;13.90;60.99
66144;SHT31;52947;50.842;6.084;2024-03-06T14:59:00;13.86;61.68
66144;SHT31;52947;50.842;6.084;2024-03-06T15:01:28;13.56;62.80
66144;SHT31;52947;50.842;6.084;2024-03-06T15:03:56;13.04;63.15
66144;SHT31;52947;50.842;6.084;2024-03-06T15:06:25;12.60;65.12
66144;SHT31;52947;50.842;6.084;2024-03-06T15:08:54;12.48;64.67
66144;SHT31;52947;50.842;6.084;2024-03-06T15:11:22;12.22;64.79
66144;SHT31;52947;50.842;6.084;2024-03-06T15:13:51;12.12;64.89
66144;SHT31;52947;50.842;6.084;2024-03-06T15:16:19;12.02;64.85
66144;SHT31;52947;50.842;6.084;2024-03-06T15:18:47;12.09;64.36
66144;SHT31;52947;50.842;6.084;2024-03-06T15:21:15;12.16;64.56
66144;SHT31;52947;50.842;6.084;2024-03-06T15:23:43;12.17;65.39
66144;SHT31;52947;50.842;6.084;2024-03-06T15:26:13;12.13;66.60
66144;SHT31;52947;50.842;6.084;2024-03-06T15:28:41;11.97;66.18
66144;SHT31;52947;50.842;6.084;2024-03-06T15:31:09;11.71;66.82
66144;SHT31;52947;50.842;6.084;2024-03-06T15:33:37;11.72;66.50
66144;SHT31;52947;50.842;6.084;2024-03-06T15:36:05;11.54;67.77
66144;SHT31;52947;50.842;6.084;2024-03-06T15:38:33;11.59;68.45
66144;SHT31;52947;50.842;6.084;2024-03-06T15:41:01;11.49;68.34
66144;SHT31;52947;50.842;6.084;2024-03-06T15:43:32;11.48;68.62
66144;SHT31;52947;50.842;6.084;2024-03-06T15:46:00;11.18;69.64
66144;SHT31;52947;50.842;6.084;2024-03-06T15:48:28;11.10;70.48
66144;SHT31;52947;50.842;6.084;2024-03-06T15:50:58;10.99;70.46
66144;SHT31;52947;50.842;6.084;2024-03-06T15:53:26;10.85;71.02
66144;SHT31;52947;50.842;6.084;2024-03-06T15:55:56;10.83;71.01